createdAt,value
2018-05-11T00:00:31.305Z,99.90
2018-05-11T00:02:58.384Z,99.90
2018-05-11T00:05:24.727Z,99.90
2018-05-11T00:07:51.071Z,99.90
2018-05-11T00:10:17.422Z,99.90
2018-05-11T00:12:43.769Z,99.90
2018-05-11T00:15:10.113Z,99.90
2018-05-11T00:17:37.196Z,99.90
2018-05-11T00:20:03.555Z,99.90
2018-05-11T00:22:29.922Z,99.90
2018-05-11T00:24:57.017Z,99.90
2018-05-11T00:27:23.351Z,99.90
2018-05-11T00:29:49.696Z,99.90
2018-05-11T00:32:16.058Z,99.90
2018-05-11T00:34:42.377Z,99.90
2018-05-11T00:37:08.761Z,99.90
2018-05-11T00:39:35.057Z,99.90
2018-05-11T00:42:01.471Z,99.90
2018-05-11T00:44:27.764Z,99.90
2018-05-11T00:46:54.136Z,99.90
2018-05-11T00:49:20.453Z,99.90
2018-05-11T00:51:46.763Z,99.90
2018-05-11T00:54:13.073Z,99.90
2018-05-11T00:56:39.545Z,99.90
2018-05-11T00:59:05.890Z,99.90
2018-05-11T01:01:32.254Z,99.90
2018-05-11T01:03:58.570Z,99.90
2018-05-11T01:06:24.908Z,99.90
2018-05-11T01:08:51.222Z,99.90
2018-05-11T01:11:17.565Z,99.90
2018-05-11T01:13:43.955Z,99.90
2018-05-11T01:16:10.302Z,99.90
2018-05-11T01:18:36.622Z,99.90
2018-05-11T01:21:03.064Z,99.90
2018-05-11T01:23:30.085Z,99.90
2018-05-11T01:25:56.459Z,99.90
2018-05-11T01:28:22.773Z,99.90
2018-05-11T01:30:49.115Z,99.90
2018-05-11T01:33:16.184Z,99.90
2018-05-11T01:35:42.516Z,99.90
2018-05-11T01:38:08.906Z,99.90
2018-05-11T01:40:35.215Z,99.90
2018-05-11T01:43:02.285Z,99.90
2018-05-11T01:45:28.611Z,99.90
2018-05-11T01:47:54.913Z,99.90
2018-05-11T01:50:21.198Z,99.90
2018-05-11T01:52:47.506Z,99.90
2018-05-11T01:55:14.599Z,99.90
2018-05-11T01:57:40.887Z,99.90
2018-05-11T02:00:07.949Z,99.90
2018-05-11T02:02:34.257Z,99.90
2018-05-11T02:05:00.588Z,99.90
2018-05-11T02:07:27.652Z,99.90
2018-05-11T02:09:54.024Z,99.90
2018-05-11T02:12:20.332Z,99.90
2018-05-11T02:14:46.666Z,99.90
2018-05-11T02:17:13.045Z,99.90
2018-05-11T02:19:39.360Z,99.90
2018-05-11T02:22:05.659Z,99.90
2018-05-11T02:24:31.940Z,99.90
2018-05-11T02:26:58.241Z,99.90
2018-05-11T02:29:24.500Z,99.90
2018-05-11T02:31:50.856Z,99.90
2018-05-11T02:34:18.084Z,99.90
2018-05-11T02:36:44.404Z,99.90
2018-05-11T02:39:10.716Z,99.90
2018-05-11T02:41:36.993Z,99.90
2018-05-11T02:44:03.521Z,99.90
2018-05-11T02:46:29.856Z,99.90
2018-05-11T02:48:56.201Z,99.90
2018-05-11T02:51:23.216Z,99.90
2018-05-11T02:53:49.537Z,99.90
2018-05-11T02:56:15.846Z,99.90
2018-05-11T02:58:42.160Z,99.90
2018-05-11T03:01:08.453Z,99.90
2018-05-11T03:03:34.752Z,99.90
2018-05-11T03:06:01.075Z,99.90
2018-05-11T03:08:27.368Z,99.90
2018-05-11T03:10:54.416Z,99.90
2018-05-11T03:13:21.480Z,99.90
2018-05-11T03:15:47.821Z,99.90
2018-05-11T03:18:14.196Z,99.90
2018-05-11T03:20:40.541Z,99.90
2018-05-11T03:23:06.832Z,99.90
2018-05-11T03:25:33.167Z,99.90
2018-05-11T03:27:59.459Z,99.90
2018-05-11T03:30:26.512Z,99.90
2018-05-11T03:32:53.548Z,99.90
2018-05-11T03:35:20.638Z,99.90
2018-05-11T03:37:47.005Z,99.90
2018-05-11T03:40:14.129Z,99.90
2018-05-11T03:42:44.494Z,99.90
2018-05-11T03:45:10.815Z,99.90
2018-05-11T03:47:37.124Z,99.90
2018-05-11T03:50:03.551Z,99.90
2018-05-11T03:52:29.950Z,99.90
2018-05-11T03:54:56.998Z,99.90
2018-05-11T03:57:23.312Z,99.90
2018-05-11T03:59:49.660Z,99.90
2018-05-11T04:02:29.176Z,99.90
2018-05-11T04:05:08.045Z,99.90
2018-05-11T04:07:46.783Z,99.90
2018-05-11T04:10:13.130Z,99.90
2018-05-11T04:12:39.472Z,99.90
2018-05-11T04:15:06.582Z,99.90
2018-05-11T04:17:32.899Z,99.90
2018-05-11T04:19:59.260Z,99.90
2018-05-11T04:22:25.589Z,99.90
2018-05-11T04:24:51.902Z,99.90
2018-05-11T04:27:18.192Z,99.90
2018-05-11T04:29:44.505Z,99.90
2018-05-11T04:32:12.331Z,99.90
2018-05-11T04:34:38.623Z,99.90
2018-05-11T04:37:04.897Z,99.90
2018-05-11T04:39:31.206Z,99.90
2018-05-11T04:41:58.291Z,99.90
2018-05-11T04:44:25.611Z,99.90
2018-05-11T04:46:52.672Z,99.90
2018-05-11T04:49:18.962Z,99.90
2018-05-11T04:51:45.237Z,99.90
2018-05-11T04:54:11.584Z,99.90
2018-05-11T04:56:38.140Z,99.90
2018-05-11T04:59:04.488Z,99.90
2018-05-11T05:01:30.833Z,99.90
2018-05-11T05:03:57.141Z,99.90
2018-05-11T05:06:23.437Z,99.90
2018-05-11T05:08:49.835Z,99.90
2018-05-11T05:11:16.900Z,99.90
2018-05-11T05:13:43.204Z,99.90
2018-05-11T05:16:09.517Z,99.90
2018-05-11T05:18:35.863Z,99.90
2018-05-11T05:21:02.571Z,99.90
2018-05-11T05:23:28.964Z,99.90
2018-05-11T05:25:56.005Z,99.90
2018-05-11T05:28:22.374Z,99.90
2018-05-11T05:30:48.677Z,99.90
2018-05-11T05:33:16.734Z,99.90
2018-05-11T05:35:43.061Z,99.90
2018-05-11T05:38:09.423Z,99.90
2018-05-11T05:40:36.137Z,99.90
2018-05-11T05:43:03.555Z,99.90
2018-05-11T05:45:29.995Z,99.90
2018-05-11T05:47:56.295Z,99.90
2018-05-11T05:50:22.603Z,99.90
2018-05-11T05:52:48.884Z,99.90
2018-05-11T05:55:15.220Z,99.90
2018-05-11T05:57:41.562Z,99.90
2018-05-11T06:00:07.944Z,99.90
2018-05-11T06:02:34.997Z,99.90
2018-05-11T06:05:01.314Z,99.90
2018-05-11T06:07:28.400Z,99.90
2018-05-11T06:09:54.864Z,99.90
2018-05-11T06:12:22.032Z,99.90
2018-05-11T06:14:48.387Z,99.90
2018-05-11T06:17:15.782Z,99.90
2018-05-11T06:19:43.736Z,99.90
2018-05-11T06:22:10.121Z,99.90
2018-05-11T06:24:36.448Z,99.90
2018-05-11T06:27:02.776Z,99.90
2018-05-11T06:29:29.108Z,99.90
2018-05-11T06:31:55.475Z,99.90
2018-05-11T06:34:21.820Z,99.90
2018-05-11T06:36:48.945Z,99.90
2018-05-11T06:39:16.145Z,99.90
2018-05-11T06:41:42.501Z,99.90
2018-05-11T06:44:08.887Z,99.90
2018-05-11T06:46:35.947Z,99.90
2018-05-11T06:49:02.297Z,99.90
2018-05-11T06:51:28.615Z,99.90
2018-05-11T06:53:55.492Z,99.90
2018-05-11T06:56:21.836Z,99.90
2018-05-11T06:58:48.623Z,99.30
2018-05-11T07:01:15.095Z,99.90
2018-05-11T07:03:42.345Z,98.80
2018-05-11T07:06:08.718Z,98.50
2018-05-11T07:08:35.790Z,98.30
2018-05-11T07:11:02.420Z,98.30
2018-05-11T07:13:29.198Z,96.90
2018-05-11T07:15:55.616Z,97.40
2018-05-11T07:18:22.025Z,92.30
2018-05-11T07:20:48.565Z,93.90
2018-05-11T07:23:15.059Z,94.70
2018-05-11T07:25:41.493Z,93.60
2018-05-11T07:28:08.322Z,92.20
2018-05-11T07:30:34.731Z,91.60
2018-05-11T07:33:05.108Z,92.50
2018-05-11T07:35:31.503Z,92.40
2018-05-11T07:37:58.069Z,93.10
2018-05-11T07:40:25.305Z,92.70
2018-05-11T07:42:52.007Z,92.40
2018-05-11T07:45:27.831Z,91.10
2018-05-11T07:47:55.520Z,91.00
2018-05-11T07:50:21.940Z,91.90
2018-05-11T07:52:50.629Z,92.40
2018-05-11T07:55:17.100Z,89.30
2018-05-11T07:57:44.289Z,89.60
2018-05-11T08:00:10.842Z,90.00
2018-05-11T08:02:37.292Z,84.60
2018-05-11T08:05:03.820Z,87.40
2018-05-11T08:07:30.289Z,85.60
2018-05-11T08:09:56.679Z,87.00
2018-05-11T08:12:23.886Z,86.60
2018-05-11T08:14:50.359Z,86.60
2018-05-11T08:17:17.610Z,90.80
2018-05-11T08:19:44.456Z,90.80
2018-05-11T08:22:10.824Z,89.70
2018-05-11T08:24:37.254Z,90.80
2018-05-11T08:27:03.769Z,92.10
2018-05-11T08:29:30.987Z,91.30
2018-05-11T08:31:58.365Z,91.20
2018-05-11T08:34:24.837Z,91.00
2018-05-11T08:36:51.222Z,91.20
2018-05-11T08:39:17.565Z,91.40
2018-05-11T08:41:43.833Z,92.20
2018-05-11T08:44:10.909Z,92.30
2018-05-11T08:46:37.281Z,92.30
2018-05-11T08:49:03.615Z,91.90
2018-05-11T08:51:29.912Z,91.50
2018-05-11T08:53:56.198Z,91.40
2018-05-11T08:56:23.239Z,91.70
2018-05-11T08:58:49.563Z,91.70
2018-05-11T09:01:15.868Z,92.70
2018-05-11T09:03:42.312Z,91.30
2018-05-11T09:06:09.390Z,89.80
2018-05-11T09:08:35.885Z,89.70
2018-05-11T09:11:02.160Z,89.60
2018-05-11T09:13:29.297Z,89.40
2018-05-11T09:15:55.570Z,89.40
2018-05-11T09:18:21.858Z,83.00
2018-05-11T09:20:48.155Z,82.30
2018-05-11T09:23:14.468Z,86.00
2018-05-11T09:25:40.810Z,83.70
2018-05-11T09:28:07.111Z,81.90
2018-05-11T09:30:34.320Z,86.60
2018-05-11T09:33:00.601Z,86.70
2018-05-11T09:35:26.934Z,87.60
2018-05-11T09:37:54.029Z,88.60
2018-05-11T09:40:20.327Z,88.50
2018-05-11T09:42:46.649Z,90.60
2018-05-11T09:45:13.659Z,88.60
2018-05-11T09:47:39.999Z,88.60
2018-05-11T09:50:06.308Z,85.10
2018-05-11T09:52:32.588Z,86.50
2018-05-11T09:54:58.964Z,89.90
2018-05-11T09:57:26.213Z,90.50
2018-05-11T09:59:52.728Z,90.50
2018-05-11T10:02:19.105Z,90.40
2018-05-11T10:04:45.400Z,89.50
2018-05-11T10:07:12.603Z,91.50
2018-05-11T10:09:39.083Z,91.50
2018-05-11T10:12:05.562Z,90.30
2018-05-11T10:14:31.926Z,88.40
2018-05-11T10:16:58.339Z,88.00
2018-05-11T10:19:25.396Z,83.80
2018-05-11T10:21:51.778Z,83.80
2018-05-11T10:24:18.172Z,84.30
2018-05-11T10:26:44.587Z,81.00
2018-05-11T10:29:11.696Z,79.20
2018-05-11T10:31:38.045Z,79.20
2018-05-11T10:34:04.535Z,72.10
2018-05-11T10:36:30.909Z,74.70
2018-05-11T10:38:57.298Z,76.70
2018-05-11T10:41:23.909Z,72.40
2018-05-11T10:43:50.264Z,75.30
2018-05-11T10:46:16.594Z,75.60
2018-05-11T10:48:42.964Z,70.00
2018-05-11T10:51:09.527Z,75.70
2018-05-11T10:53:37.590Z,73.70
2018-05-11T10:56:05.144Z,75.50
2018-05-11T10:58:31.536Z,75.50
2018-05-11T11:00:58.343Z,77.20
2018-05-11T11:03:24.924Z,74.00
2018-05-11T11:05:51.521Z,74.30
2018-05-11T11:08:21.911Z,73.40
2018-05-11T11:10:48.483Z,70.20
2018-05-11T11:13:15.776Z,65.40
2018-05-11T11:15:42.423Z,65.40
2018-05-11T11:18:08.988Z,69.20
2018-05-11T11:20:35.366Z,71.70
2018-05-11T11:23:01.928Z,72.70
2018-05-11T11:25:29.103Z,67.10
2018-05-11T11:27:55.473Z,70.30
2018-05-11T11:30:22.651Z,69.80
2018-05-11T11:32:49.306Z,69.90
2018-05-11T11:35:15.778Z,69.40
2018-05-11T11:37:42.198Z,69.10
2018-05-11T11:40:08.746Z,70.40
2018-05-11T11:42:35.292Z,70.90
2018-05-11T11:45:01.882Z,71.90
2018-05-11T11:47:28.380Z,70.40
2018-05-11T11:49:54.727Z,72.20
2018-05-11T11:52:21.259Z,72.20
2018-05-11T11:54:48.638Z,73.00
2018-05-11T11:57:16.082Z,74.90
2018-05-11T11:59:42.597Z,74.80
2018-05-11T12:02:09.692Z,77.80
2018-05-11T12:04:36.029Z,77.80
2018-05-11T12:07:02.326Z,81.30
2018-05-11T12:09:28.682Z,80.60
2018-05-11T12:11:55.528Z,77.10
2018-05-11T12:14:21.872Z,76.90
2018-05-11T12:16:48.152Z,77.90
2018-05-11T12:19:14.475Z,76.30
2018-05-11T12:21:41.524Z,77.30
2018-05-11T12:24:07.839Z,77.90
2018-05-11T12:29:31.151Z,76.20
2018-05-11T12:31:57.746Z,75.20
2018-05-11T12:34:24.155Z,75.70
2018-05-11T12:36:50.531Z,73.10
2018-05-11T12:39:17.040Z,71.00
2018-05-11T12:41:43.630Z,69.50
2018-05-11T12:44:10.012Z,66.50
2018-05-11T12:46:38.507Z,70.80
2018-05-11T12:49:05.329Z,70.80
2018-05-11T12:51:31.866Z,75.10
2018-05-11T12:53:58.478Z,75.00
2018-05-11T12:56:25.498Z,74.30
2018-05-11T12:58:51.873Z,74.30
2018-05-11T13:01:18.227Z,79.10
2018-05-11T13:03:44.613Z,77.70
2018-05-11T13:06:11.669Z,73.70
2018-05-11T13:08:38.031Z,73.70
2018-05-11T13:11:04.369Z,72.50
2018-05-11T13:13:30.782Z,72.70
2018-05-11T13:15:57.197Z,69.70
2018-05-11T13:18:24.297Z,69.00
2018-05-11T13:20:50.745Z,72.80
2018-05-11T13:23:17.029Z,74.10
2018-05-11T13:25:43.400Z,70.30
2018-05-11T13:28:09.724Z,75.10
2018-05-11T13:30:36.167Z,66.80
2018-05-11T13:33:02.484Z,66.00
2018-05-11T13:35:28.874Z,70.60
2018-05-11T13:37:56.038Z,55.90
2018-05-11T13:40:22.376Z,55.80
2018-05-11T13:42:48.763Z,60.90
2018-05-11T13:45:15.122Z,58.20
2018-05-11T13:47:42.220Z,67.40
2018-05-11T13:50:09.712Z,67.30
2018-05-11T13:52:36.829Z,64.90
2018-05-11T13:55:03.193Z,64.90
2018-05-11T13:57:29.551Z,60.90
2018-05-11T13:59:56.680Z,63.00
2018-05-11T14:02:23.076Z,62.90
2018-05-11T14:04:49.418Z,67.10
2018-05-11T14:07:15.804Z,65.70
2018-05-11T14:09:48.815Z,63.70
2018-05-11T14:12:15.208Z,61.40
2018-05-11T14:14:42.514Z,60.40
2018-05-11T14:17:08.864Z,63.50
2018-05-11T14:19:35.245Z,65.00
2018-05-11T14:22:01.726Z,64.50
2018-05-11T14:24:28.205Z,56.80
2018-05-11T14:26:55.408Z,62.20
2018-05-11T14:29:21.761Z,62.10
2018-05-11T14:31:48.066Z,62.70
2018-05-11T14:34:15.392Z,59.50
2018-05-11T14:36:41.796Z,59.10
2018-05-11T14:39:09.091Z,57.80
2018-05-11T14:41:35.507Z,57.30
2018-05-11T14:44:01.882Z,55.80
2018-05-11T14:46:28.315Z,55.40
2018-05-11T14:48:54.968Z,59.40
2018-05-11T14:51:21.381Z,57.30
2018-05-11T14:53:47.799Z,60.00
2018-05-11T14:56:14.206Z,64.10
2018-05-11T14:58:40.645Z,60.10
2018-05-11T15:01:07.011Z,65.60
2018-05-11T15:03:33.374Z,62.80
2018-05-11T15:06:00.802Z,59.10
2018-05-11T15:08:27.168Z,59.10
2018-05-11T15:10:54.261Z,62.10
2018-05-11T15:13:24.684Z,61.90
2018-05-11T15:15:50.984Z,62.10
2018-05-11T15:18:17.373Z,61.10
2018-05-11T15:20:43.773Z,61.50
2018-05-11T15:23:10.143Z,62.80
2018-05-11T15:25:36.645Z,56.70
2018-05-11T15:28:02.935Z,56.20
2018-05-11T15:30:29.291Z,54.70
2018-05-11T15:32:56.909Z,59.00
2018-05-11T15:35:23.304Z,59.00
2018-05-11T15:37:49.712Z,59.90
2018-05-11T15:40:16.098Z,62.60
2018-05-11T15:42:54.929Z,60.00
2018-05-11T15:45:23.426Z,62.60
2018-05-11T15:47:56.838Z,62.80
2018-05-11T15:50:26.378Z,61.40
2018-05-11T15:52:52.788Z,56.80
2018-05-11T15:55:19.356Z,56.40
2018-05-11T15:58:00.054Z,57.50
2018-05-11T16:00:26.677Z,62.10
2018-05-11T16:02:53.082Z,66.30
2018-05-11T16:05:20.560Z,68.90
2018-05-11T16:07:46.962Z,68.90
2018-05-11T16:10:14.171Z,72.30
2018-05-11T16:12:40.740Z,72.30
2018-05-11T16:15:07.016Z,71.00
2018-05-11T16:17:33.971Z,71.20
2018-05-11T16:20:02.488Z,71.20
2018-05-11T16:22:28.931Z,72.00
2018-05-11T16:24:56.329Z,65.70
2018-05-11T16:27:22.825Z,66.80
2018-05-11T16:29:49.739Z,67.20
2018-05-11T16:32:16.485Z,67.40
2018-05-11T16:34:43.080Z,68.70
2018-05-11T16:37:09.466Z,68.60
2018-05-11T16:39:36.515Z,68.80
2018-05-11T16:42:03.312Z,70.60
2018-05-11T16:44:30.307Z,71.10
2018-05-11T16:46:56.870Z,70.50
2018-05-11T16:49:23.204Z,70.20
2018-05-11T16:51:50.344Z,71.50
2018-05-11T16:54:16.709Z,71.40
2018-05-11T16:56:43.291Z,69.00
2018-05-11T16:59:09.770Z,70.70
2018-05-11T17:01:36.896Z,72.90
2018-05-11T17:04:04.800Z,70.60
2018-05-11T17:06:32.900Z,73.00
2018-05-11T17:08:59.352Z,72.90
2018-05-11T17:11:25.744Z,69.50
2018-05-11T17:13:52.891Z,71.50
2018-05-11T17:16:19.381Z,72.90
2018-05-11T17:18:45.775Z,73.60
2018-05-11T17:21:12.427Z,73.20
2018-05-11T17:23:39.067Z,74.80
2018-05-11T17:26:05.413Z,75.60
2018-05-11T17:28:32.459Z,72.70
2018-05-11T17:30:58.867Z,72.50
2018-05-11T17:33:25.594Z,75.10
2018-05-11T17:35:52.683Z,75.50
2018-05-11T17:38:19.730Z,75.80
2018-05-11T17:40:46.341Z,76.40
2018-05-11T17:43:14.312Z,77.10
2018-05-11T17:45:41.188Z,76.90
2018-05-11T17:48:08.539Z,77.30
2018-05-11T17:50:36.067Z,78.50
2018-05-11T17:53:03.163Z,79.90
2018-05-11T17:55:31.396Z,79.80
2018-05-11T17:58:00.376Z,80.00
2018-05-11T18:00:27.187Z,80.50
2018-05-11T18:02:53.951Z,82.10
2018-05-11T18:05:20.319Z,82.00
2018-05-11T18:07:46.639Z,83.10
2018-05-11T18:10:13.788Z,83.90
2018-05-11T18:12:40.088Z,83.90
2018-05-11T18:15:07.747Z,84.00
2018-05-11T18:17:34.888Z,85.60
2018-05-11T18:20:01.432Z,85.60
2018-05-11T18:22:28.673Z,87.10
2018-05-11T18:24:55.007Z,87.10
2018-05-11T18:27:21.810Z,87.50
2018-05-11T18:29:48.151Z,88.30
2018-05-11T18:32:14.525Z,88.60
2018-05-11T18:34:40.930Z,89.00
2018-05-11T18:37:08.313Z,90.40
2018-05-11T18:39:34.681Z,90.20
2018-05-11T18:42:01.765Z,90.90
2018-05-11T18:44:28.116Z,90.80
2018-05-11T18:46:54.650Z,90.90
2018-05-11T18:49:20.935Z,91.10
2018-05-11T18:51:48.044Z,91.40
2018-05-11T18:54:14.606Z,91.40
2018-05-11T18:56:40.835Z,91.50
2018-05-11T18:59:07.910Z,91.90
2018-05-11T19:01:34.399Z,91.90
2018-05-11T19:04:01.441Z,92.40
2018-05-11T19:06:27.820Z,92.40
2018-05-11T19:08:58.186Z,92.70
2018-05-11T19:11:24.527Z,92.90
2018-05-11T19:13:50.890Z,93.60
2018-05-11T19:16:17.302Z,93.40
2018-05-11T19:18:43.682Z,93.60
2018-05-11T19:21:10.063Z,93.60
2018-05-11T19:23:36.365Z,94.10
2018-05-11T19:26:02.807Z,94.30
2018-05-11T19:28:29.117Z,94.40
2018-05-11T19:30:55.522Z,94.70
2018-05-11T19:33:21.859Z,95.00
2018-05-11T19:35:48.288Z,95.20
2018-05-11T19:38:15.315Z,95.70
2018-05-11T19:40:41.778Z,95.60
2018-05-11T19:43:08.124Z,95.90
2018-05-11T19:45:34.538Z,96.10
2018-05-11T19:48:00.924Z,96.30
2018-05-11T19:50:27.304Z,96.50
2018-05-11T19:52:53.607Z,96.70
2018-05-11T19:55:19.948Z,96.80
2018-05-11T19:57:46.247Z,97.10
2018-05-11T20:00:12.587Z,97.20
2018-05-11T20:02:39.945Z,97.30
2018-05-11T20:05:06.270Z,97.50
2018-05-11T20:07:32.671Z,97.70
2018-05-11T20:09:59.060Z,97.80
2018-05-11T20:12:25.462Z,97.90
2018-05-11T20:14:51.838Z,98.00
2018-05-11T20:17:18.921Z,98.10
2018-05-11T20:19:45.274Z,98.20
2018-05-11T20:22:11.639Z,98.40
2018-05-11T20:24:37.956Z,98.30
2018-05-11T20:27:04.316Z,98.30
2018-05-11T20:29:30.909Z,98.60
2018-05-11T20:31:57.243Z,98.70
2018-05-11T20:34:23.562Z,98.80
2018-05-11T20:36:49.929Z,98.80
2018-05-11T20:39:16.224Z,98.80
2018-05-11T20:41:42.628Z,99.10
2018-05-11T20:44:08.872Z,99.30
2018-05-11T20:46:35.215Z,99.80
2018-05-11T20:49:02.449Z,99.90
2018-05-11T20:51:29.512Z,99.90
2018-05-11T20:53:55.813Z,99.90
2018-05-11T20:56:22.853Z,99.90
2018-05-11T20:58:49.150Z,99.90
2018-05-11T21:01:15.439Z,99.90
2018-05-11T21:03:42.464Z,99.90
2018-05-11T21:06:08.846Z,99.90
2018-05-11T21:08:35.114Z,99.90
2018-05-11T21:11:01.435Z,99.90
2018-05-11T21:13:27.839Z,99.90
2018-05-11T21:15:55.115Z,99.90
2018-05-11T21:18:21.412Z,99.90
2018-05-11T21:20:47.737Z,99.90
2018-05-11T21:23:15.009Z,99.90
2018-05-11T21:25:41.324Z,99.90
2018-05-11T21:28:08.387Z,99.90
2018-05-11T21:30:34.676Z,99.90
2018-05-11T21:33:00.977Z,99.90
2018-05-11T21:35:27.293Z,99.90
2018-05-11T21:37:53.618Z,99.90
2018-05-11T21:40:19.938Z,99.90
2018-05-11T21:42:46.260Z,99.90
2018-05-11T21:45:13.364Z,99.90
2018-05-11T21:47:39.807Z,99.90
2018-05-11T21:50:06.113Z,99.90
2018-05-11T21:52:32.577Z,99.90
2018-05-11T21:54:58.934Z,99.90
2018-05-11T21:57:25.251Z,99.90
2018-05-11T21:59:51.552Z,99.90
2018-05-11T22:02:17.888Z,99.90
2018-05-11T22:04:44.187Z,99.90
2018-05-11T22:07:10.500Z,99.90
2018-05-11T22:09:37.536Z,99.90
2018-05-11T22:12:04.565Z,99.90
2018-05-11T22:14:30.888Z,99.90
2018-05-11T22:16:57.230Z,99.90
2018-05-11T22:19:23.512Z,99.90
2018-05-11T22:21:49.852Z,99.90
2018-05-11T22:24:16.180Z,99.90
2018-05-11T22:26:42.529Z,99.90
2018-05-11T22:29:08.832Z,99.90
2018-05-11T22:31:35.152Z,99.90
2018-05-11T22:34:02.197Z,99.90
2018-05-11T22:36:28.537Z,99.90
2018-05-11T22:38:54.880Z,99.90
2018-05-11T22:41:21.252Z,99.90
2018-05-11T22:43:47.562Z,99.90
2018-05-11T22:46:13.855Z,99.90
2018-05-11T22:48:40.884Z,99.90
2018-05-11T22:51:07.167Z,99.90
2018-05-11T22:53:33.489Z,99.90
2018-05-11T22:55:59.787Z,99.90
2018-05-11T22:58:26.046Z,99.90
2018-05-11T23:00:52.348Z,99.90
2018-05-11T23:03:19.402Z,99.90
2018-05-11T23:05:45.714Z,99.90
2018-05-11T23:08:12.031Z,99.90
2018-05-11T23:10:38.339Z,99.90
2018-05-11T23:13:04.637Z,99.90
2018-05-11T23:15:30.979Z,99.90
2018-05-11T23:17:57.302Z,99.90
2018-05-11T23:20:23.590Z,99.90
2018-05-11T23:22:49.884Z,99.90
2018-05-11T23:25:16.151Z,99.90
2018-05-11T23:27:42.473Z,99.90
2018-05-11T23:30:08.758Z,99.90
2018-05-11T23:32:35.064Z,99.90
2018-05-11T23:35:01.475Z,99.90
2018-05-11T23:37:28.444Z,99.90
2018-05-11T23:39:54.731Z,99.90
2018-05-11T23:42:21.007Z,99.90
2018-05-11T23:44:47.279Z,99.90
2018-05-11T23:47:13.591Z,99.90
2018-05-11T23:49:39.970Z,99.90
2018-05-11T23:52:06.218Z,99.90
2018-05-11T23:54:32.535Z,99.90
2018-05-11T23:56:58.819Z,99.90
2018-05-11T23:59:25.853Z,99.90
